createdAt,value
2019-04-13T00:01:02.902Z,13.53
2019-04-13T00:03:11.460Z,13.03
2019-04-13T00:05:35.175Z,13.33
2019-04-13T00:07:41.183Z,14.10
2019-04-13T00:09:46.707Z,13.53
2019-04-13T00:12:17.543Z,13.93
2019-04-13T00:14:26.356Z,15.73
2019-04-13T00:16:32.131Z,13.20
2019-04-13T00:18:37.992Z,15.10
2019-04-13T00:20:45.691Z,14.20
2019-04-13T00:22:51.217Z,15.07
2019-04-13T00:24:57.877Z,14.63
2019-04-13T00:27:04.076Z,15.90
2019-04-13T00:29:12.211Z,14.93
2019-04-13T00:31:24.100Z,14.97
2019-04-13T00:33:29.638Z,18.03
2019-04-13T00:35:36.055Z,18.00
2019-04-13T00:37:41.594Z,18.53
2019-04-13T00:39:47.554Z,15.27
2019-04-13T00:41:53.370Z,15.10
2019-04-13T00:43:59.300Z,15.00
2019-04-13T00:46:05.043Z,14.60
2019-04-13T00:48:14.386Z,14.97
2019-04-13T00:50:25.279Z,14.50
2019-04-13T00:52:30.763Z,16.00
2019-04-13T00:54:36.581Z,15.73
2019-04-13T00:56:42.204Z,14.90
2019-04-13T00:58:47.721Z,16.70
2019-04-13T01:00:53.678Z,14.40
2019-04-13T01:02:59.478Z,15.30
2019-04-13T01:05:05.418Z,15.67
2019-04-13T01:07:12.926Z,14.63
2019-04-13T01:09:27.681Z,14.27
2019-04-13T01:11:33.866Z,18.10
2019-04-13T01:13:39.723Z,15.03
2019-04-13T01:15:46.119Z,16.77
2019-04-13T01:17:51.621Z,15.97
2019-04-13T01:19:57.204Z,16.73
2019-04-13T01:22:03.208Z,17.77
2019-04-13T01:24:10.349Z,16.13
2019-04-13T01:26:29.135Z,14.47
2019-04-13T01:28:35.134Z,15.23
2019-04-13T01:30:40.702Z,15.93
2019-04-13T01:32:46.709Z,16.13
2019-04-13T01:34:52.665Z,15.87
2019-04-13T01:36:58.163Z,15.93
2019-04-13T01:39:03.997Z,15.60
2019-04-13T01:41:13.284Z,16.20
2019-04-13T01:43:22.011Z,17.07
2019-04-13T01:45:27.985Z,17.57
2019-04-13T01:47:33.834Z,16.80
2019-04-13T01:49:39.699Z,17.03
2019-04-13T01:51:45.647Z,17.57
2019-04-13T01:54:28.648Z,19.10
2019-04-13T01:56:34.305Z,16.00
2019-04-13T01:58:40.374Z,15.70
2019-04-13T02:01:05.936Z,17.97
2019-04-13T02:03:15.390Z,22.83
2019-04-13T02:05:48.088Z,16.63
2019-04-13T02:08:16.045Z,17.00
2019-04-13T02:10:35.756Z,17.87
2019-04-13T02:12:41.799Z,17.50
2019-04-13T02:14:47.380Z,17.30
2019-04-13T02:16:52.902Z,20.00
2019-04-13T02:18:59.232Z,16.57
2019-04-13T02:21:05.515Z,17.50
2019-04-13T02:23:13.416Z,17.87
2019-04-13T02:25:28.336Z,19.23
2019-04-13T02:27:35.410Z,17.57
2019-04-13T02:29:41.079Z,17.70
2019-04-13T02:31:46.939Z,19.03
2019-04-13T02:33:52.519Z,19.03
2019-04-13T02:35:58.115Z,18.97
2019-04-13T02:38:03.668Z,18.93
2019-04-13T02:40:10.172Z,18.00
2019-04-13T02:42:17.545Z,19.17
2019-04-13T02:44:26.465Z,17.50
2019-04-13T02:46:34.543Z,17.53
2019-04-13T02:48:40.149Z,18.13
2019-04-13T02:50:45.700Z,19.30
2019-04-13T02:52:51.600Z,19.03
2019-04-13T02:54:57.146Z,19.23
2019-04-13T02:57:02.695Z,19.07
2019-04-13T02:59:09.825Z,20.43
2019-04-13T03:01:17.529Z,19.30
2019-04-13T03:03:28.709Z,18.90
2019-04-13T03:05:41.354Z,22.40
2019-04-13T03:07:41.378Z,21.30
2019-04-13T03:09:46.949Z,18.40
2019-04-13T03:11:52.887Z,18.93
2019-04-13T03:13:58.801Z,18.90
2019-04-13T03:16:23.017Z,20.83
2019-04-13T03:18:33.352Z,21.87
2019-04-13T03:20:38.935Z,21.30
2019-04-13T03:22:44.821Z,19.37
2019-04-13T03:24:50.660Z,19.83
2019-04-13T03:26:57.086Z,20.90
2019-04-13T03:29:02.607Z,22.20
2019-04-13T03:31:09.733Z,20.90
2019-04-13T03:33:19.955Z,19.83
2019-04-13T03:35:28.025Z,22.10
2019-04-13T03:37:34.072Z,22.27
2019-04-13T03:39:39.591Z,22.03
2019-04-13T03:41:45.435Z,21.43
2019-04-13T03:43:51.311Z,20.40
2019-04-13T03:45:57.440Z,22.00
2019-04-13T03:48:03.818Z,20.40
2019-04-13T03:50:12.990Z,19.20
2019-04-13T03:52:21.028Z,18.50
2019-04-13T03:54:29.281Z,21.13
2019-04-13T03:56:35.504Z,19.10
2019-04-13T03:58:41.260Z,20.00
2019-04-13T04:00:46.863Z,20.00
2019-04-13T04:02:52.374Z,21.00
2019-04-13T04:04:58.195Z,18.67
2019-04-13T04:07:04.358Z,17.40
2019-04-13T04:09:14.017Z,19.50
2019-04-13T04:11:25.699Z,20.00
2019-04-13T04:13:31.291Z,18.80
2019-04-13T04:15:36.795Z,19.10
2019-04-13T04:17:42.319Z,17.73
2019-04-13T04:19:48.599Z,20.60
2019-04-13T04:21:54.402Z,19.10
2019-04-13T04:24:00.383Z,20.40
2019-04-13T04:26:07.216Z,17.30
2019-04-13T04:28:14.268Z,18.37
2019-04-13T04:30:22.896Z,17.87
2019-04-13T04:32:29.085Z,18.63
2019-04-13T04:34:34.985Z,18.17
2019-04-13T04:36:40.568Z,17.50
2019-04-13T04:38:46.786Z,16.70
2019-04-13T04:40:52.282Z,16.93
2019-04-13T04:42:58.043Z,15.90
2019-04-13T04:45:04.988Z,17.47
2019-04-13T04:47:12.619Z,17.57
2019-04-13T04:49:23.437Z,17.60
2019-04-13T04:51:29.697Z,17.07
2019-04-13T04:53:35.718Z,16.37
2019-04-13T04:55:41.233Z,17.23
2019-04-13T04:57:47.251Z,19.57
2019-04-13T04:59:53.149Z,17.27
2019-04-13T05:01:58.601Z,16.13
2019-04-13T05:04:04.411Z,17.47
2019-04-13T05:06:13.648Z,17.83
2019-04-13T05:08:21.117Z,17.73
2019-04-13T05:10:27.010Z,17.60
2019-04-13T05:12:33.326Z,16.77
2019-04-13T05:14:38.863Z,18.63
2019-04-13T05:16:44.434Z,18.00
2019-04-13T05:18:49.923Z,18.07
2019-04-13T05:20:55.730Z,17.40
2019-04-13T05:23:01.306Z,16.63
2019-04-13T05:25:09.150Z,17.30
2019-04-13T05:27:16.370Z,17.73
2019-04-13T05:29:26.228Z,16.97
2019-04-13T05:31:34.614Z,14.90
2019-04-13T05:33:40.707Z,18.60
2019-04-13T05:35:46.202Z,16.97
2019-04-13T05:37:52.095Z,18.10
2019-04-13T05:39:57.916Z,18.10
2019-04-13T05:42:03.579Z,15.83
2019-04-13T05:44:11.546Z,16.63
2019-04-13T05:46:22.636Z,34.40
2019-04-13T05:48:28.471Z,744.67
2019-04-13T05:50:34.045Z,558.47
2019-04-13T05:52:39.843Z,181.17
2019-04-13T05:54:45.463Z,48.70
2019-04-13T05:56:51.586Z,26.97
2019-04-13T05:59:03.393Z,23.00
2019-04-13T06:01:05.175Z,17.23
2019-04-13T06:03:14.190Z,20.03
2019-04-13T06:05:24.522Z,18.50
2019-04-13T06:07:30.096Z,17.37
2019-04-13T06:09:36.057Z,17.23
2019-04-13T06:11:41.851Z,19.50
2019-04-13T06:13:47.489Z,87.67
2019-04-13T06:15:55.361Z,220.17
2019-04-13T06:18:03.274Z,1162.10
2019-04-13T06:20:13.065Z,724.77
2019-04-13T06:22:26.646Z,502.10
2019-04-13T06:24:32.373Z,269.50
2019-04-13T06:26:41.099Z,133.57
2019-04-13T06:28:47.893Z,62.97
2019-04-13T06:31:14.116Z,40.47
2019-04-13T06:33:52.716Z,30.77
2019-04-13T06:35:58.673Z,26.33
2019-04-13T06:38:04.467Z,22.60
2019-04-13T06:40:10.777Z,28.37
2019-04-13T06:42:20.981Z,22.53
2019-04-13T06:44:32.197Z,22.73
2019-04-13T06:46:35.227Z,19.23
2019-04-13T06:48:40.834Z,24.53
2019-04-13T06:50:46.646Z,21.47
2019-04-13T06:52:52.224Z,101.67
2019-04-13T06:54:58.211Z,1073.80
2019-04-13T06:57:04.394Z,1656.87
2019-04-13T06:59:12.243Z,1274.60
2019-04-13T07:01:23.144Z,891.83
2019-04-13T07:03:30.004Z,1066.90
2019-04-13T07:05:41.059Z,670.23
2019-04-13T07:07:56.937Z,494.60
2019-04-13T07:10:30.601Z,1039.43
2019-04-13T07:12:34.862Z,1799.23
2019-04-13T07:14:40.880Z,1177.30
2019-04-13T07:16:56.689Z,725.03
2019-04-13T07:19:06.453Z,534.93
2019-04-13T07:21:17.543Z,398.90
2019-04-13T07:23:37.707Z,252.70
2019-04-13T07:25:43.305Z,94.60
2019-04-13T07:27:49.589Z,60.83
2019-04-13T07:29:56.405Z,37.83
2019-04-13T07:32:07.601Z,31.53
2019-04-13T07:34:15.944Z,29.50
2019-04-13T07:36:34.026Z,27.63
2019-04-13T07:38:40.017Z,26.00
2019-04-13T07:40:45.771Z,27.93
2019-04-13T07:42:53.963Z,25.50
2019-04-13T07:45:07.593Z,31.27
2019-04-13T07:47:37.082Z,25.60
2019-04-13T07:50:03.532Z,22.80
2019-04-13T07:52:15.243Z,25.17
2019-04-13T07:54:25.705Z,21.87
2019-04-13T07:56:32.151Z,23.17
2019-04-13T07:58:37.941Z,22.93
2019-04-13T08:00:47.249Z,22.70
2019-04-13T08:02:53.252Z,19.27
2019-04-13T08:04:58.793Z,22.40
2019-04-13T08:07:06.551Z,20.63
2019-04-13T08:09:16.407Z,19.97
2019-04-13T08:11:27.049Z,20.00
2019-04-13T08:13:33.042Z,22.00
2019-04-13T08:15:41.595Z,322.53
2019-04-13T08:17:47.618Z,863.27
2019-04-13T08:20:12.282Z,493.47
2019-04-13T08:22:36.672Z,399.10
2019-04-13T08:24:40.042Z,647.27
2019-04-13T08:26:53.380Z,328.73
2019-04-13T08:29:02.375Z,984.80
2019-04-13T08:31:14.285Z,669.57
2019-04-13T08:33:24.829Z,438.70
2019-04-13T08:35:36.604Z,132.50
2019-04-13T08:37:52.916Z,623.17
2019-04-13T08:40:02.281Z,365.33
2019-04-13T08:42:18.483Z,878.47
2019-04-13T08:44:24.009Z,369.77
2019-04-13T08:46:36.534Z,231.73
2019-04-13T08:48:45.455Z,254.87
2019-04-13T08:50:51.469Z,966.43
2019-04-13T08:52:57.830Z,876.10
2019-04-13T08:55:03.870Z,335.83
2019-04-13T08:57:11.796Z,606.63
2019-04-13T08:59:24.787Z,427.30
2019-04-13T09:01:30.966Z,249.47
2019-04-13T09:03:37.303Z,430.77
2019-04-13T09:05:43.486Z,799.00
2019-04-13T09:07:49.179Z,777.73
2019-04-13T09:09:56.426Z,1169.97
2019-04-13T09:12:06.867Z,519.47
2019-04-13T09:14:14.040Z,192.30
2019-04-13T09:16:27.535Z,64.80
2019-04-13T09:18:51.101Z,43.03
2019-04-13T09:21:07.866Z,34.40
2019-04-13T09:23:23.140Z,31.50
2019-04-13T09:25:25.413Z,26.97
2019-04-13T09:27:31.360Z,29.60
2019-04-13T09:29:37.027Z,25.10
2019-04-13T09:31:42.567Z,324.53
2019-04-13T09:33:48.506Z,74.00
2019-04-13T09:35:56.312Z,37.03
2019-04-13T09:38:03.777Z,32.33
2019-04-13T09:40:11.429Z,28.60
2019-04-13T09:42:19.564Z,385.50
2019-04-13T09:44:31.758Z,676.07
2019-04-13T09:46:37.638Z,405.67
2019-04-13T09:48:43.683Z,196.30
2019-04-13T09:50:49.203Z,213.87
2019-04-13T09:52:54.995Z,635.27
2019-04-13T09:55:00.547Z,713.33
2019-04-13T09:57:07.621Z,337.73
2019-04-13T09:59:14.806Z,97.97
2019-04-13T10:01:26.472Z,912.63
2019-04-13T10:03:32.020Z,877.53
2019-04-13T10:05:37.622Z,739.57
2019-04-13T10:07:45.745Z,599.23
2019-04-13T10:09:50.489Z,547.50
2019-04-13T10:12:17.503Z,301.33
2019-04-13T10:14:45.424Z,176.97
2019-04-13T10:17:05.626Z,119.27
2019-04-13T10:19:13.999Z,71.63
2019-04-13T10:21:32.007Z,49.33
2019-04-13T10:23:37.538Z,155.00
2019-04-13T10:25:43.051Z,485.20
2019-04-13T10:27:48.911Z,86.20
2019-04-13T10:29:54.455Z,274.27
2019-04-13T10:31:59.949Z,479.43
2019-04-13T10:34:06.791Z,324.37
2019-04-13T10:36:15.293Z,90.53
2019-04-13T10:38:22.852Z,47.30
2019-04-13T10:40:28.711Z,37.03
2019-04-13T10:42:34.256Z,33.30
2019-04-13T10:45:13.900Z,34.03
2019-04-13T10:47:38.050Z,30.60
2019-04-13T10:49:55.063Z,28.80
2019-04-13T10:52:07.658Z,129.80
2019-04-13T10:54:15.136Z,43.57
2019-04-13T10:56:26.861Z,34.23
2019-04-13T10:58:32.857Z,30.10
2019-04-13T11:00:38.367Z,29.23
2019-04-13T11:02:43.909Z,27.47
2019-04-13T11:04:51.538Z,26.17
2019-04-13T11:06:57.071Z,29.37
2019-04-13T11:09:02.594Z,31.80
2019-04-13T11:11:12.558Z,27.20
2019-04-13T11:13:23.021Z,30.83
2019-04-13T11:15:29.014Z,30.33
2019-04-13T11:17:34.887Z,29.27
2019-04-13T11:19:40.627Z,128.13
2019-04-13T11:21:47.273Z,73.03
2019-04-13T11:23:53.277Z,47.20
2019-04-13T11:26:00.997Z,55.37
2019-04-13T11:28:08.084Z,235.23
2019-04-13T11:30:16.523Z,107.23
2019-04-13T11:32:31.395Z,47.47
2019-04-13T11:34:35.345Z,35.00
2019-04-13T11:36:43.167Z,96.63
2019-04-13T11:38:48.793Z,53.40
2019-04-13T11:41:02.467Z,37.37
2019-04-13T11:43:32.717Z,32.47
2019-04-13T11:45:58.616Z,28.77
2019-04-13T11:48:22.527Z,29.93
2019-04-13T11:50:33.556Z,28.03
2019-04-13T11:52:39.078Z,29.30
2019-04-13T11:54:47.272Z,121.40
2019-04-13T11:56:52.815Z,511.40
2019-04-13T11:58:58.301Z,530.90
2019-04-13T12:01:22.584Z,564.83
2019-04-13T12:03:45.603Z,328.03
2019-04-13T12:05:52.127Z,139.73
2019-04-13T12:08:08.407Z,55.10
2019-04-13T12:10:35.076Z,102.53
2019-04-13T12:13:19.738Z,52.33
2019-04-13T12:15:42.033Z,49.77
2019-04-13T12:18:05.334Z,32.37
2019-04-13T12:20:47.441Z,50.27
2019-04-13T12:22:53.510Z,41.33
2019-04-13T12:25:00.857Z,35.63
2019-04-13T12:27:08.620Z,30.83
2019-04-13T12:29:20.180Z,29.90
2019-04-13T12:31:26.302Z,113.30
2019-04-13T12:33:32.086Z,721.63
2019-04-13T12:35:37.752Z,151.70
2019-04-13T12:37:43.288Z,1612.67
2019-04-13T12:40:02.337Z,519.13
2019-04-13T12:42:05.635Z,155.17
2019-04-13T12:44:12.963Z,166.63
2019-04-13T12:46:24.039Z,84.63
2019-04-13T12:48:30.067Z,77.97
2019-04-13T12:50:35.596Z,49.93
2019-04-13T12:52:41.112Z,39.77
2019-04-13T12:54:48.477Z,37.30
2019-04-13T12:56:54.663Z,32.30
2019-04-13T12:59:00.294Z,34.40
2019-04-13T13:01:13.500Z,30.73
2019-04-13T13:03:26.992Z,28.30
2019-04-13T13:05:35.562Z,30.13
2019-04-13T13:07:41.247Z,31.40
2019-04-13T13:09:47.153Z,29.43
2019-04-13T13:11:52.717Z,28.00
2019-04-13T13:13:58.698Z,28.53
2019-04-13T13:16:04.658Z,26.43
2019-04-13T13:18:12.165Z,27.80
2019-04-13T13:20:27.642Z,29.17
2019-04-13T13:22:34.024Z,30.50
2019-04-13T13:24:43.157Z,27.47
2019-04-13T13:26:49.185Z,26.97
2019-04-13T13:28:54.648Z,27.10
2019-04-13T13:31:00.508Z,27.47
2019-04-13T13:33:06.964Z,27.17
2019-04-13T13:35:13.649Z,27.00
2019-04-13T13:37:28.610Z,27.27
2019-04-13T13:39:33.704Z,26.90
2019-04-13T13:41:41.513Z,26.37
2019-04-13T13:43:48.166Z,29.00
2019-04-13T13:45:54.011Z,25.97
2019-04-13T13:48:02.097Z,28.43
2019-04-13T13:50:09.362Z,25.90
2019-04-13T13:52:23.331Z,26.70
2019-04-13T13:54:28.882Z,28.60
2019-04-13T13:56:34.803Z,26.73
2019-04-13T13:58:48.036Z,27.53
2019-04-13T14:01:14.701Z,27.00
2019-04-13T14:03:26.117Z,25.57
2019-04-13T14:05:34.982Z,25.60
2019-04-13T14:07:40.316Z,26.27
2019-04-13T14:10:05.798Z,26.27
2019-04-13T14:12:21.666Z,27.33
2019-04-13T14:14:30.643Z,25.33
2019-04-13T14:16:36.648Z,25.00
2019-04-13T14:18:42.497Z,26.40
2019-04-13T14:20:48.047Z,26.13
2019-04-13T14:22:54.065Z,25.87
2019-04-13T14:25:00.220Z,25.90
2019-04-13T14:27:06.334Z,26.70
2019-04-13T14:29:13.963Z,25.63
2019-04-13T14:31:30.633Z,25.73
2019-04-13T14:33:41.995Z,26.67
2019-04-13T14:35:47.875Z,28.00
2019-04-13T14:37:53.844Z,25.60
2019-04-13T14:40:03.552Z,1038.43
2019-04-13T14:42:09.583Z,792.33
2019-04-13T14:44:22.206Z,567.30
2019-04-13T14:46:28.378Z,766.23
2019-04-13T14:48:36.483Z,263.80
2019-04-13T14:50:42.345Z,58.53
2019-04-13T14:52:51.508Z,239.93
2019-04-13T14:55:00.035Z,722.80
2019-04-13T14:57:07.918Z,1038.13
2019-04-13T14:59:16.776Z,1152.90
2019-04-13T15:01:25.137Z,309.80
2019-04-13T15:03:30.833Z,1376.13
2019-04-13T15:05:36.467Z,1999.90
2019-04-13T15:07:43.015Z,1552.73
2019-04-13T15:09:52.697Z,484.67
2019-04-13T15:11:58.813Z,385.93
2019-04-13T15:14:06.755Z,1624.87
2019-04-13T15:16:18.803Z,303.47
2019-04-13T15:18:45.475Z,1241.83
2019-04-13T15:20:56.555Z,677.37
2019-04-13T15:23:08.057Z,1312.40
2019-04-13T15:25:19.074Z,239.97
2019-04-13T15:27:31.954Z,1999.90
2019-04-13T15:29:39.104Z,591.93
2019-04-13T15:31:45.336Z,715.03
2019-04-13T15:33:55.821Z,444.53
2019-04-13T15:36:02.800Z,398.47
2019-04-13T15:38:09.237Z,282.07
2019-04-13T15:40:25.355Z,878.90
2019-04-13T15:42:38.922Z,188.40
2019-04-13T15:44:38.905Z,127.20
2019-04-13T15:46:46.019Z,90.90
2019-04-13T15:48:51.851Z,53.43
2019-04-13T15:50:57.666Z,42.67
2019-04-13T15:53:04.055Z,34.20
2019-04-13T15:55:10.860Z,31.60
2019-04-13T15:57:24.224Z,35.93
2019-04-13T15:59:30.876Z,30.77
2019-04-13T16:01:36.956Z,30.87
2019-04-13T16:03:42.627Z,1244.80
2019-04-13T16:05:49.521Z,1459.67
2019-04-13T16:07:55.722Z,1020.50
2019-04-13T16:10:32.615Z,1488.70
2019-04-13T16:12:47.122Z,445.53
2019-04-13T16:14:54.741Z,256.53
2019-04-13T16:17:05.476Z,169.27
2019-04-13T16:19:14.065Z,116.20
2019-04-13T16:21:26.300Z,79.63
2019-04-13T16:23:34.788Z,60.73
2019-04-13T16:25:44.539Z,54.70
2019-04-13T16:28:01.805Z,42.67
2019-04-13T16:30:25.754Z,41.03
2019-04-13T16:33:03.108Z,37.60
2019-04-13T16:35:38.767Z,35.30
2019-04-13T16:37:48.791Z,36.03
2019-04-13T16:39:55.723Z,34.57
2019-04-13T16:42:08.717Z,35.53
2019-04-13T16:44:16.613Z,33.37
2019-04-13T16:46:34.325Z,58.10
2019-04-13T16:49:08.686Z,49.77
2019-04-13T16:51:24.232Z,89.70
2019-04-13T16:53:45.513Z,151.00
2019-04-13T16:55:55.857Z,259.83
2019-04-13T16:58:27.709Z,223.90
2019-04-13T17:01:00.968Z,62.97
2019-04-13T17:03:25.030Z,42.90
2019-04-13T17:05:33.235Z,93.60
2019-04-13T17:07:40.514Z,314.90
2019-04-13T17:09:46.155Z,154.10
2019-04-13T17:11:52.704Z,60.67
2019-04-13T17:14:00.054Z,42.00
2019-04-13T17:16:07.164Z,38.63
2019-04-13T17:18:25.298Z,34.67
2019-04-13T17:21:06.154Z,282.20
2019-04-13T17:23:33.784Z,93.43
2019-04-13T17:25:52.710Z,77.27
2019-04-13T17:28:15.270Z,320.07
2019-04-13T17:30:38.732Z,105.37
2019-04-13T17:33:06.656Z,43.00
2019-04-13T17:35:26.489Z,47.63
2019-04-13T17:37:32.035Z,400.07
2019-04-13T17:39:38.878Z,150.93
2019-04-13T17:42:03.406Z,110.87
2019-04-13T17:44:25.406Z,446.10
2019-04-13T17:47:06.534Z,298.57
2019-04-13T17:49:38.476Z,240.70
2019-04-13T17:52:09.502Z,58.97
2019-04-13T17:54:43.936Z,46.27
2019-04-13T17:57:03.484Z,37.17
2019-04-13T17:59:45.044Z,490.27
2019-04-13T18:02:09.069Z,155.33
2019-04-13T18:04:45.849Z,47.33
2019-04-13T18:07:11.579Z,35.83
2019-04-13T18:09:37.189Z,33.47
2019-04-13T18:12:08.581Z,514.93
2019-04-13T18:14:28.063Z,788.63
2019-04-13T18:16:42.181Z,459.70
2019-04-13T18:18:56.048Z,389.63
2019-04-13T18:21:05.724Z,136.60
2019-04-13T18:23:13.871Z,77.43
2019-04-13T18:25:35.739Z,397.63
2019-04-13T18:27:35.520Z,97.37
2019-04-13T18:29:41.094Z,685.60
2019-04-13T18:31:48.226Z,655.20
2019-04-13T18:33:55.423Z,381.80
2019-04-13T18:36:00.978Z,128.60
2019-04-13T18:38:08.056Z,64.97
2019-04-13T18:40:17.933Z,46.70
2019-04-13T18:42:24.303Z,40.17
2019-04-13T18:44:30.110Z,37.17
2019-04-13T18:46:36.255Z,33.97
2019-04-13T18:48:42.553Z,794.83
2019-04-13T18:50:48.310Z,589.53
2019-04-13T18:52:55.202Z,166.57
2019-04-13T18:55:01.768Z,304.30
2019-04-13T18:57:08.965Z,73.60
2019-04-13T18:59:25.171Z,522.20
2019-04-13T19:01:32.318Z,316.87
2019-04-13T19:03:43.812Z,991.90
2019-04-13T19:05:50.115Z,240.10
2019-04-13T19:07:58.021Z,453.57
2019-04-13T19:10:03.962Z,201.57
2019-04-13T19:12:12.891Z,72.30
2019-04-13T19:14:23.835Z,55.83
2019-04-13T19:16:30.124Z,53.03
2019-04-13T19:18:36.657Z,42.30
2019-04-13T19:20:42.283Z,40.23
2019-04-13T19:22:48.514Z,35.43
2019-04-13T19:24:54.287Z,40.43
2019-04-13T19:26:59.944Z,34.83
2019-04-13T19:29:06.111Z,35.67
2019-04-13T19:31:14.039Z,33.30
2019-04-13T19:33:26.409Z,35.30
2019-04-13T19:35:32.346Z,34.30
2019-04-13T19:37:37.936Z,32.27
2019-04-13T19:39:43.485Z,35.57
2019-04-13T19:41:49.463Z,34.90
2019-04-13T19:43:55.028Z,34.03
2019-04-13T19:46:00.872Z,32.20
2019-04-13T19:48:07.775Z,245.60
2019-04-13T19:50:16.022Z,167.27
2019-04-13T19:52:42.009Z,675.07
2019-04-13T19:54:47.817Z,282.43
2019-04-13T19:56:55.044Z,843.77
2019-04-13T19:59:00.913Z,1110.70
2019-04-13T20:01:08.418Z,435.60
2019-04-13T20:03:16.888Z,135.73
2019-04-13T20:05:26.065Z,67.70
2019-04-13T20:07:31.944Z,51.20
2019-04-13T20:09:37.596Z,40.07
2019-04-13T20:11:43.350Z,1326.13
2019-04-13T20:13:55.216Z,1071.30
2019-04-13T20:15:57.267Z,441.30
2019-04-13T20:18:03.819Z,307.30
2019-04-13T20:20:12.267Z,177.00
2019-04-13T20:22:24.183Z,130.37
2019-04-13T20:24:29.832Z,117.97
2019-04-13T20:26:36.187Z,62.17
2019-04-13T20:28:41.962Z,49.87
2019-04-13T20:30:47.864Z,45.40
2019-04-13T20:32:53.877Z,38.50
2019-04-13T20:34:59.861Z,38.00
2019-04-13T20:37:07.884Z,41.30
2019-04-13T20:39:16.400Z,72.57
2019-04-13T20:41:38.626Z,373.67
2019-04-13T20:43:44.559Z,110.23
2019-04-13T20:45:39.664Z,45.33
2019-04-13T20:47:45.864Z,42.17
2019-04-13T20:49:51.745Z,278.40
2019-04-13T20:51:57.666Z,316.17
2019-04-13T20:54:03.371Z,96.60
2019-04-13T20:56:12.076Z,133.90
2019-04-13T20:58:20.308Z,343.87
2019-04-13T21:00:29.202Z,132.30
2019-04-13T21:02:35.308Z,61.53
2019-04-13T21:04:41.642Z,40.10
2019-04-13T21:06:47.817Z,36.87
2019-04-13T21:08:55.859Z,82.03
2019-04-13T21:11:00.439Z,233.10
2019-04-13T21:13:08.204Z,101.07
2019-04-13T21:15:18.193Z,42.20
2019-04-13T21:17:26.907Z,40.07
2019-04-13T21:19:32.792Z,35.87
2019-04-13T21:21:39.530Z,328.30
2019-04-13T21:23:45.641Z,60.67
2019-04-13T21:25:53.297Z,56.80
2019-04-13T21:27:59.566Z,378.13
2019-04-13T21:30:06.300Z,694.47
2019-04-13T21:32:16.157Z,278.00
2019-04-13T21:34:26.483Z,601.40
2019-04-13T21:36:32.824Z,303.23
2019-04-13T21:38:38.751Z,598.67
2019-04-13T21:40:44.880Z,506.27
2019-04-13T21:42:51.331Z,272.00
2019-04-13T21:44:57.236Z,74.87
2019-04-13T21:47:03.148Z,98.30
2019-04-13T21:49:12.115Z,291.43
2019-04-13T21:51:42.281Z,72.33
2019-04-13T21:54:05.994Z,54.17
2019-04-13T21:56:16.437Z,838.23
2019-04-13T21:58:25.176Z,168.57
2019-04-13T22:00:51.200Z,915.60
2019-04-13T22:02:59.774Z,1093.07
2019-04-13T22:05:06.078Z,490.73
2019-04-13T22:09:30.470Z,540.47
2019-04-13T22:11:36.602Z,1437.67
2019-04-13T22:13:42.417Z,603.97
2019-04-13T22:15:48.564Z,238.20
2019-04-13T22:17:55.306Z,220.13
2019-04-13T22:20:01.688Z,134.67
2019-04-13T22:22:10.203Z,125.93
2019-04-13T22:24:18.018Z,619.03
2019-04-13T22:26:26.372Z,117.97
2019-04-13T22:28:37.405Z,64.70
2019-04-13T22:31:11.496Z,47.13
2019-04-13T22:33:24.606Z,36.27
2019-04-13T22:35:47.436Z,32.23
2019-04-13T22:37:53.778Z,582.73
2019-04-13T22:39:59.702Z,409.63
2019-04-13T22:42:07.809Z,871.80
2019-04-13T22:44:16.020Z,776.60
2019-04-13T22:46:26.056Z,549.27
2019-04-13T22:48:42.715Z,1202.60
2019-04-13T22:51:07.663Z,1524.27
2019-04-13T22:53:26.329Z,562.87
2019-04-13T22:55:54.185Z,657.40
2019-04-13T22:58:00.767Z,827.10
2019-04-13T23:00:17.218Z,498.87
2019-04-13T23:02:54.301Z,251.80
2019-04-13T23:05:02.337Z,146.93
2019-04-13T23:07:11.144Z,96.10
2019-04-13T23:09:30.229Z,61.20
2019-04-13T23:11:36.575Z,42.80
2019-04-13T23:13:42.993Z,34.27
2019-04-13T23:15:49.035Z,32.33
2019-04-13T23:17:55.264Z,1317.80
2019-04-13T23:20:01.191Z,1999.90
2019-04-13T23:22:08.023Z,1040.50
2019-04-13T23:24:30.458Z,581.30
2019-04-13T23:26:29.696Z,1999.90
2019-04-13T23:28:35.692Z,1861.00
2019-04-13T23:30:44.505Z,680.33
2019-04-13T23:32:51.064Z,477.67
2019-04-13T23:35:00.016Z,390.67
2019-04-13T23:37:04.737Z,255.83
2019-04-13T23:39:12.720Z,134.33
2019-04-13T23:41:27.838Z,82.90
2019-04-13T23:43:34.282Z,51.77
2019-04-13T23:45:40.649Z,35.87
2019-04-13T23:47:47.422Z,31.93
2019-04-13T23:49:53.847Z,28.80
2019-04-13T23:52:00.193Z,29.30
2019-04-13T23:54:08.504Z,26.03
2019-04-13T23:56:28.064Z,24.60
2019-04-13T23:58:45.192Z,23.47
